Time;durP1;ratioP1;P1;durP2;ratioP2;P2;SDS_P1;SDS_P2;PMS_P1;PMS_P2;Temp;Humidity;BMP_temperature;BMP_pressure;BME280_temperature;BME280_humidity;BME280_pressure;Samples;Min_cycle;Max_cycle;Signal;HPM_P1;HPM_P2
2022/07/28 00:01:38;;;;;;;59.80;3.53;;;;;;;;;;5115742;28;20485;-66
2022/07/28 00:04:06;;;;;;;60.33;3.80;;;;;;;;;;5115331;28;20455;-66
2022/07/28 00:06:33;;;;;;;59.37;3.33;;;;;;;;;;5115595;28;20442;-66
2022/07/28 00:09:00;;;;;;;60.00;3.60;;;;;;;;;;5115636;28;20441;-66
2022/07/28 00:11:27;;;;;;;60.90;4.17;;;;;;;;;;5115673;28;20469;-66
2022/07/28 00:13:54;;;;;;;58.97;3.00;;;;;;;;;;5115326;28;20449;-66
2022/07/28 00:16:22;;;;;;;60.30;4.13;;;;;;;;;;5115523;28;20449;-66
2022/07/28 00:18:50;;;;;;;59.40;3.80;;;;;;;;;;5115190;28;20957;-66
2022/07/28 00:21:18;;;;;;;60.50;3.60;;;;;;;;;;5115093;27;20485;-66
2022/07/28 00:23:45;;;;;;;59.50;3.00;;;;;;;;;;5115229;28;20805;-67
2022/07/28 00:26:12;;;;;;;59.77;3.60;;;;;;;;;;5115103;28;20971;-67
2022/07/28 00:28:39;;;;;;;59.00;3.53;;;;;;;;;;5115164;28;20450;-67
2022/07/28 00:31:06;;;;;;;60.30;3.63;;;;;;;;;;5114953;28;20461;-67
2022/07/28 00:33:33;;;;;;;61.40;3.80;;;;;;;;;;5115293;28;20450;-67
2022/07/28 00:36:02;;;;;;;60.30;3.90;;;;;;;;;;5114985;28;20544;-67
2022/07/28 00:38:29;;;;;;;59.27;3.33;;;;;;;;;;5114835;28;20445;-67
2022/07/28 00:41:11;;;;;;;60.93;4.20;;;;;;;;;;5114874;28;20465;-67
2022/07/28 00:43:39;;;;;;;59.90;3.67;;;;;;;;;;5114774;28;20537;-67
2022/07/28 00:46:07;;;;;;;60.13;3.23;;;;;;;;;;5114891;28;20819;-67
2022/07/28 00:48:34;;;;;;;59.33;3.60;;;;;;;;;;5114647;28;20526;-67
2022/07/28 00:51:03;;;;;;;60.63;3.70;;;;;;;;;;5114476;28;21008;-67
2022/07/28 00:53:31;;;;;;;59.17;3.60;;;;;;;;;;5114946;28;20442;-67
2022/07/28 00:55:58;;;;;;;60.90;3.50;;;;;;;;;;5114637;28;20449;-67
2022/07/28 00:58:26;;;;;;;60.10;3.50;;;;;;;;;;5114393;28;20956;-67
2022/07/28 01:00:54;;;;;;;59.00;3.40;;;;;;;;;;5114233;28;20461;-67
2022/07/28 01:03:21;;;;;;;59.10;3.40;;;;;;;;;;5114497;28;20827;-67
2022/07/28 01:05:52;;;;;;;58.97;3.20;;;;;;;;;;5114157;28;20446;-67
2022/07/28 01:08:24;;;;;;;59.30;3.40;;;;;;;;;;5114657;28;20939;-67
2022/07/28 01:10:56;;;;;;;58.60;3.00;;;;;;;;;;5114215;28;20465;-66
2022/07/28 01:13:30;;;;;;;59.53;3.50;;;;;;;;;;5114559;28;20491;-66
2022/07/28 01:16:00;;;;;;;61.23;4.20;;;;;;;;;;5114172;28;20445;-66
2022/07/28 01:18:29;;;;;;;59.90;4.20;;;;;;;;;;5114042;28;20450;-66
2022/07/28 01:21:01;;;;;;;59.70;3.70;;;;;;;;;;5114214;28;20465;-66
2022/07/28 01:23:43;;;;;;;60.00;3.70;;;;;;;;;;5114426;28;20472;-66
2022/07/28 01:26:19;;;;;;;59.90;3.73;;;;;;;;;;5101300;28;20450;-66
2022/07/28 01:28:53;;;;;;;59.50;4.13;;;;;;;;;;5112866;28;21078;-66
2022/07/28 01:31:24;;;;;;;59.57;3.60;;;;;;;;;;5113856;28;20466;-66
2022/07/28 01:33:53;;;;;;;62.87;3.87;;;;;;;;;;5113893;28;20809;-66
2022/07/28 01:36:23;;;;;;;59.13;3.60;;;;;;;;;;5113830;28;20442;-66
2022/07/28 01:38:50;;;;;;;61.57;4.10;;;;;;;;;;5113885;28;20448;-66
2022/07/28 01:41:19;;;;;;;59.03;3.57;;;;;;;;;;5113923;28;20461;-66
2022/07/28 01:43:48;;;;;;;59.43;3.80;;;;;;;;;;5113654;28;20824;-66
2022/07/28 01:46:16;;;;;;;59.40;3.20;;;;;;;;;;5113669;28;20451;-66
2022/07/28 01:48:46;;;;;;;58.90;3.13;;;;;;;;;;5113593;28;20445;-66
2022/07/28 01:51:14;;;;;;;59.37;3.77;;;;;;;;;;5113402;28;20477;-66
2022/07/28 01:53:43;;;;;;;59.20;3.60;;;;;;;;;;5113426;27;20468;-66
2022/07/28 01:56:10;;;;;;;59.00;3.03;;;;;;;;;;5113491;28;20470;-66
2022/07/28 01:58:38;;;;;;;59.10;3.20;;;;;;;;;;5113229;28;20448;-66
2022/07/28 02:01:06;;;;;;;58.97;3.00;;;;;;;;;;5113168;28;20996;-66
2022/07/28 02:03:34;;;;;;;59.60;3.47;;;;;;;;;;5113233;28;20481;-66
2022/07/28 02:06:05;;;;;;;62.80;3.53;;;;;;;;;;5113397;28;20465;-66
2022/07/28 02:08:33;;;;;;;58.83;3.33;;;;;;;;;;5113077;28;20445;-66
2022/07/28 02:13:47;;;;;;;59.80;3.40;;;;;;;;;;5112469;28;20421;-66
2022/07/28 02:16:15;;;;;;;60.33;3.27;;;;;;;;;;5112997;28;20535;-66
2022/07/28 02:18:43;;;;;;;59.03;3.23;;;;;;;;;;5113069;28;20452;-66
2022/07/28 02:21:12;;;;;;;58.80;2.73;;;;;;;;;;5112927;28;20470;-66
2022/07/28 02:23:40;;;;;;;63.90;4.13;;;;;;;;;;5113148;28;20481;-66
2022/07/28 02:26:09;;;;;;;59.93;3.80;;;;;;;;;;5112805;28;20951;-66
2022/07/28 02:28:37;;;;;;;59.20;3.43;;;;;;;;;;5112833;28;20448;-66
2022/07/28 02:31:05;;;;;;;60.27;4.17;;;;;;;;;;5112838;28;20465;-66
2022/07/28 02:33:34;;;;;;;59.97;3.53;;;;;;;;;;5112866;28;20541;-66
2022/07/28 02:36:02;;;;;;;59.70;3.93;;;;;;;;;;5112820;28;20813;-66
2022/07/28 02:38:35;;;;;;;59.60;4.33;;;;;;;;;;5112530;28;20506;-66
2022/07/28 02:41:05;;;;;;;59.00;3.37;;;;;;;;;;5112748;28;20470;-66
2022/07/28 02:43:33;;;;;;;59.20;3.20;;;;;;;;;;5112716;28;20492;-66
2022/07/28 02:46:02;;;;;;;59.80;3.30;;;;;;;;;;5112700;27;20828;-66
2022/07/28 02:48:30;;;;;;;64.50;5.20;;;;;;;;;;5112671;28;20445;-66
2022/07/28 02:50:58;;;;;;;59.30;3.40;;;;;;;;;;5112312;28;20479;-66
2022/07/28 02:53:26;;;;;;;63.07;3.77;;;;;;;;;;5112740;28;20448;-67
2022/07/28 02:55:55;;;;;;;59.60;4.00;;;;;;;;;;5112643;28;20458;-67
2022/07/28 02:58:23;;;;;;;60.20;4.00;;;;;;;;;;5112585;28;20817;-67
2022/07/28 03:00:51;;;;;;;58.90;3.00;;;;;;;;;;5112156;28;21015;-67
2022/07/28 03:03:19;;;;;;;59.47;3.27;;;;;;;;;;5112339;28;20518;-66
2022/07/28 03:05:46;;;;;;;59.40;4.10;;;;;;;;;;5112293;28;20446;-66
2022/07/28 03:08:14;;;;;;;59.60;3.27;;;;;;;;;;5112512;28;20449;-66
2022/07/28 03:10:41;;;;;;;59.70;3.60;;;;;;;;;;5112118;28;20471;-66
2022/07/28 03:13:10;;;;;;;58.97;3.50;;;;;;;;;;5112183;28;20921;-66
2022/07/28 03:15:38;;;;;;;61.77;3.80;;;;;;;;;;5112512;28;20450;-66
2022/07/28 03:18:06;;;;;;;59.30;3.20;;;;;;;;;;5112118;28;20459;-66
2022/07/28 03:20:33;;;;;;;60.17;3.80;;;;;;;;;;5111957;28;20468;-66
2022/07/28 03:23:01;;;;;;;58.60;3.20;;;;;;;;;;5112466;28;20477;-66
2022/07/28 03:25:33;;;;;;;59.03;3.27;;;;;;;;;;5116343;28;20941;-66
2022/07/28 03:28:01;;;;;;;59.77;3.40;;;;;;;;;;5116067;28;20451;-66
2022/07/28 03:30:33;;;;;;;59.90;3.90;;;;;;;;;;5116138;28;20471;-66
2022/07/28 03:33:01;;;;;;;59.07;3.50;;;;;;;;;;5116705;28;20441;-66
2022/07/28 03:35:29;;;;;;;58.80;3.67;;;;;;;;;;5116393;28;20449;-66
2022/07/28 03:37:58;;;;;;;59.40;3.40;;;;;;;;;;5116152;28;20449;-66
2022/07/28 03:40:27;;;;;;;59.10;3.40;;;;;;;;;;5116043;28;20836;-66
2022/07/28 03:42:55;;;;;;;60.07;3.87;;;;;;;;;;5116285;28;20517;-66
2022/07/28 03:45:23;;;;;;;59.73;4.40;;;;;;;;;;5115879;28;20449;-66
2022/07/28 03:47:52;;;;;;;60.60;3.60;;;;;;;;;;5115873;28;20456;-66
2022/07/28 03:50:22;;;;;;;59.30;3.40;;;;;;;;;;5115444;28;20480;-66
2022/07/28 03:52:49;;;;;;;59.47;3.80;;;;;;;;;;5116265;27;20490;-66
2022/07/28 03:55:17;;;;;;;59.10;3.50;;;;;;;;;;5115763;28;20449;-66
2022/07/28 03:57:44;;;;;;;60.57;3.90;;;;;;;;;;5115731;28;20453;-66
2022/07/28 04:00:13;;;;;;;59.10;3.43;;;;;;;;;;5115485;28;21011;-66
2022/07/28 04:02:42;;;;;;;61.40;4.30;;;;;;;;;;5115754;28;20493;-66
2022/07/28 04:05:11;;;;;;;60.47;3.73;;;;;;;;;;5115603;28;20453;-66
2022/07/28 04:07:39;;;;;;;59.23;3.67;;;;;;;;;;5115882;28;20449;-66
2022/07/28 04:10:06;;;;;;;61.60;3.67;;;;;;;;;;5115287;28;20476;-66
2022/07/28 04:12:44;;;;;;;59.93;3.60;;;;;;;;;;5115374;28;20936;-66
2022/07/28 04:15:13;;;;;;;59.50;3.70;;;;;;;;;;5115557;28;20440;-66
2022/07/28 04:17:40;;;;;;;59.13;3.40;;;;;;;;;;5115490;28;20852;-66
2022/07/28 04:20:07;;;;;;;61.80;3.37;;;;;;;;;;5115393;28;20461;-67
2022/07/28 04:22:36;;;;;;;60.23;3.83;;;;;;;;;;5115379;28;20483;-67
2022/07/28 04:25:04;;;;;;;61.10;3.70;;;;;;;;;;5115150;28;20442;-66
2022/07/28 04:27:31;;;;;;;59.07;3.40;;;;;;;;;;5115542;28;20445;-67
2022/07/28 04:29:58;;;;;;;59.40;4.27;;;;;;;;;;5115024;28;20457;-67
2022/07/28 04:32:25;;;;;;;59.60;4.00;;;;;;;;;;5115100;28;20444;-67
2022/07/28 04:34:52;;;;;;;60.30;4.13;;;;;;;;;;5114394;28;20445;-67
2022/07/28 04:37:19;;;;;;;59.63;3.70;;;;;;;;;;5114893;28;20441;-67
2022/07/28 04:39:49;;;;;;;59.30;3.47;;;;;;;;;;5114848;28;20473;-67
2022/07/28 04:42:17;;;;;;;60.73;3.30;;;;;;;;;;5115043;28;20441;-67
2022/07/28 04:44:44;;;;;;;59.27;3.27;;;;;;;;;;5114898;28;20450;-67
2022/07/28 04:47:11;;;;;;;59.30;3.43;;;;;;;;;;5114779;28;20441;-67
2022/07/28 04:49:39;;;;;;;61.30;4.33;;;;;;;;;;5114496;28;20830;-67
2022/07/28 04:52:07;;;;;;;59.60;3.77;;;;;;;;;;5114727;28;20769;-67
2022/07/28 04:54:34;;;;;;;60.40;3.97;;;;;;;;;;5114747;28;20457;-67
2022/07/28 04:57:02;;;;;;;59.00;3.60;;;;;;;;;;5114792;28;20449;-67
2022/07/28 04:59:30;;;;;;;59.90;4.30;;;;;;;;;;5114411;28;20453;-67
2022/07/28 05:01:57;;;;;;;59.00;3.43;;;;;;;;;;5114984;28;20434;-67
2022/07/28 05:04:24;;;;;;;59.60;3.70;;;;;;;;;;5114250;28;20538;-67
2022/07/28 05:06:51;;;;;;;59.17;3.33;;;;;;;;;;5114674;28;20446;-67
2022/07/28 05:09:18;;;;;;;59.40;4.27;;;;;;;;;;5114468;28;20445;-67
2022/07/28 05:11:45;;;;;;;59.17;3.50;;;;;;;;;;5114546;28;20492;-67
2022/07/28 05:14:14;;;;;;;59.27;3.87;;;;;;;;;;5114259;28;20441;-67
2022/07/28 05:16:41;;;;;;;59.20;3.60;;;;;;;;;;5114276;28;20937;-67
2022/07/28 05:19:08;;;;;;;58.80;3.33;;;;;;;;;;5114040;28;20941;-67
2022/07/28 05:21:35;;;;;;;58.80;3.07;;;;;;;;;;5114249;28;20548;-67
2022/07/28 05:24:02;;;;;;;59.40;3.60;;;;;;;;;;5114272;28;20485;-67
2022/07/28 05:26:31;;;;;;;59.00;3.37;;;;;;;;;;5114083;28;20964;-67
2022/07/28 05:28:58;;;;;;;59.43;3.97;;;;;;;;;;5113651;28;20457;-67
2022/07/28 05:31:26;;;;;;;59.40;3.73;;;;;;;;;;5113864;28;20847;-67
2022/07/28 05:33:53;;;;;;;59.80;4.13;;;;;;;;;;5114157;28;20810;-67
2022/07/28 05:36:21;;;;;;;59.50;4.13;;;;;;;;;;5114007;28;20837;-67
2022/07/28 05:38:48;;;;;;;60.00;4.00;;;;;;;;;;5113704;28;20818;-67
2022/07/28 05:41:15;;;;;;;60.17;3.67;;;;;;;;;;5113651;28;20499;-67
2022/07/28 05:43:42;;;;;;;59.57;3.67;;;;;;;;;;5113725;28;20479;-67
2022/07/28 05:46:09;;;;;;;59.37;3.60;;;;;;;;;;5111235;28;20449;-68
2022/07/28 05:48:38;;;;;;;58.90;3.30;;;;;;;;;;5113640;28;20528;-66
2022/07/28 05:51:05;;;;;;;59.90;4.50;;;;;;;;;;5111675;28;20477;-66
2022/07/28 05:53:32;;;;;;;59.23;3.60;;;;;;;;;;5113328;28;20451;-67
2022/07/28 05:55:59;;;;;;;59.90;4.03;;;;;;;;;;5113346;28;20534;-67
2022/07/28 05:58:26;;;;;;;58.97;3.80;;;;;;;;;;5113309;28;20436;-67
2022/07/28 06:00:53;;;;;;;60.00;4.30;;;;;;;;;;5112408;28;20472;-67
2022/07/28 06:03:20;;;;;;;59.93;4.33;;;;;;;;;;5113116;28;20800;-67
2022/07/28 06:05:50;;;;;;;64.07;4.20;;;;;;;;;;5113166;28;20448;-67
2022/07/28 06:08:17;;;;;;;59.17;3.67;;;;;;;;;;5112790;28;20995;-67
2022/07/28 06:11:00;;;;;;;60.47;3.63;;;;;;;;;;5113122;28;20484;-67
2022/07/28 06:13:28;;;;;;;61.40;3.80;;;;;;;;;;5113089;28;20445;-67
2022/07/28 06:15:57;;;;;;;58.97;3.60;;;;;;;;;;5113110;28;20444;-67
2022/07/28 06:18:24;;;;;;;60.30;4.10;;;;;;;;;;5113118;28;20510;-67
2022/07/28 06:20:53;;;;;;;59.90;3.90;;;;;;;;;;5112787;27;20462;-67
2022/07/28 06:23:22;;;;;;;60.17;3.90;;;;;;;;;;5111563;28;21000;-67
2022/07/28 06:25:49;;;;;;;59.77;3.83;;;;;;;;;;5112550;28;20483;-67
2022/07/28 06:28:18;;;;;;;58.57;3.53;;;;;;;;;;5112907;28;20446;-67
2022/07/28 06:30:45;;;;;;;59.30;3.77;;;;;;;;;;5112489;28;20864;-67
2022/07/28 06:33:12;;;;;;;60.57;4.60;;;;;;;;;;5112711;28;20437;-67
2022/07/28 06:35:39;;;;;;;59.10;3.53;;;;;;;;;;5112406;28;20967;-66
2022/07/28 06:38:08;;;;;;;58.90;3.67;;;;;;;;;;5112677;28;20449;-67
2022/07/28 06:40:35;;;;;;;59.80;3.97;;;;;;;;;;5112464;28;20473;-67
2022/07/28 06:43:02;;;;;;;58.47;3.30;;;;;;;;;;5112435;28;20450;-67
2022/07/28 06:45:29;;;;;;;60.30;4.07;;;;;;;;;;5112389;28;20437;-67
2022/07/28 06:47:56;;;;;;;58.87;3.37;;;;;;;;;;5112447;28;20524;-67
2022/07/28 06:50:24;;;;;;;59.97;3.80;;;;;;;;;;5112072;28;21026;-67
2022/07/28 06:52:51;;;;;;;59.30;3.93;;;;;;;;;;5112433;28;20451;-66
2022/07/28 06:55:19;;;;;;;60.57;3.90;;;;;;;;;;5103823;28;20637;-66
2022/07/28 06:57:46;;;;;;;59.83;3.83;;;;;;;;;;5092077;28;20438;-67
2022/07/28 07:00:14;;;;;;;60.57;3.73;;;;;;;;;;5091488;28;20986;-67
2022/07/28 07:02:42;;;;;;;59.47;3.97;;;;;;;;;;5091936;28;20474;-66
2022/07/28 07:05:10;;;;;;;60.23;3.57;;;;;;;;;;5091569;28;20486;-67
2022/07/28 07:07:37;;;;;;;59.17;3.50;;;;;;;;;;5092045;28;20545;-67
2022/07/28 07:10:05;;;;;;;59.80;4.13;;;;;;;;;;5091705;28;20462;-67
2022/07/28 07:12:34;;;;;;;59.20;3.60;;;;;;;;;;5091966;28;20452;-67
2022/07/28 07:15:01;;;;;;;58.77;3.50;;;;;;;;;;5091812;28;20439;-67
2022/07/28 07:17:29;;;;;;;59.97;4.07;;;;;;;;;;5091696;28;20443;-67
2022/07/28 07:19:56;;;;;;;59.87;3.53;;;;;;;;;;5091280;28;20921;-67
2022/07/28 07:22:23;;;;;;;59.10;3.83;;;;;;;;;;5091833;28;20453;-67
2022/07/28 07:24:50;;;;;;;59.77;4.03;;;;;;;;;;5091505;28;21005;-67
2022/07/28 07:27:17;;;;;;;59.37;4.00;;;;;;;;;;5091615;28;20446;-67
2022/07/28 07:29:46;;;;;;;59.40;4.10;;;;;;;;;;5091468;28;20843;-67
2022/07/28 07:32:13;;;;;;;59.80;4.03;;;;;;;;;;5092030;28;20460;-67
2022/07/28 07:34:40;;;;;;;59.10;3.73;;;;;;;;;;5091841;28;20434;-67
2022/07/28 07:37:12;;;;;;;60.77;3.90;;;;;;;;;;5091755;28;20451;-67
2022/07/28 07:39:39;;;;;;;59.47;3.93;;;;;;;;;;5091339;28;20486;-67
2022/07/28 07:42:06;;;;;;;60.80;4.13;;;;;;;;;;5091461;28;20958;-67
2022/07/28 07:44:33;;;;;;;60.20;4.10;;;;;;;;;;5091655;28;20843;-67
2022/07/28 07:47:02;;;;;;;60.07;3.90;;;;;;;;;;5091275;28;20535;-67
2022/07/28 07:49:29;;;;;;;58.77;3.40;;;;;;;;;;5091088;28;20877;-67
2022/07/28 07:51:56;;;;;;;58.57;3.90;;;;;;;;;;5091639;28;20477;-67
2022/07/28 07:54:23;;;;;;;59.10;3.40;;;;;;;;;;5091705;28;20445;-67
2022/07/28 07:56:51;;;;;;;58.97;3.53;;;;;;;;;;5091385;28;20826;-67
2022/07/28 07:59:18;;;;;;;58.37;3.20;;;;;;;;;;5090754;28;20448;-67
2022/07/28 08:01:45;;;;;;;59.63;4.20;;;;;;;;;;5091122;28;20995;-67
2022/07/28 08:04:13;;;;;;;58.67;3.90;;;;;;;;;;5091265;28;20493;-67
2022/07/28 08:06:41;;;;;;;59.67;4.23;;;;;;;;;;5091490;28;20449;-67
2022/07/28 08:09:08;;;;;;;59.37;4.87;;;;;;;;;;5090860;28;20456;-67
2022/07/28 08:11:35;;;;;;;59.50;4.27;;;;;;;;;;5093633;28;20506;-67
2022/07/28 08:14:02;;;;;;;59.43;3.80;;;;;;;;;;5095010;28;20808;-67
2022/07/28 08:16:29;;;;;;;61.37;3.60;;;;;;;;;;5094935;28;20444;-67
2022/07/28 08:18:57;;;;;;;60.60;4.60;;;;;;;;;;5094692;28;20464;-67
2022/07/28 08:21:26;;;;;;;59.83;4.30;;;;;;;;;;5094616;28;20995;-68
2022/07/28 08:23:55;;;;;;;62.30;3.90;;;;;;;;;;5095343;28;20481;-67
2022/07/28 08:26:22;;;;;;;59.27;3.90;;;;;;;;;;5095218;28;20457;-67
2022/07/28 08:28:49;;;;;;;59.70;3.90;;;;;;;;;;5095849;28;20447;-68
2022/07/28 08:31:20;;;;;;;59.07;3.90;;;;;;;;;;5096478;28;20556;-67
2022/07/28 08:33:47;;;;;;;59.43;3.40;;;;;;;;;;5095827;28;20545;-68
2022/07/28 08:36:14;;;;;;;59.40;3.60;;;;;;;;;;5093744;28;20457;-68
2022/07/28 08:38:43;;;;;;;59.07;3.87;;;;;;;;;;5093994;28;20454;-68
2022/07/28 08:41:16;;;;;;;59.40;3.60;;;;;;;;;;5094003;28;20473;-68
2022/07/28 08:43:43;;;;;;;59.03;3.90;;;;;;;;;;5094318;28;20446;-68
2022/07/28 08:46:11;;;;;;;60.57;4.47;;;;;;;;;;5094307;28;20453;-69
2022/07/28 08:48:38;;;;;;;59.70;4.13;;;;;;;;;;5093764;28;20446;-68
2022/07/28 08:51:06;;;;;;;60.80;4.10;;;;;;;;;;5093916;28;20478;-68
2022/07/28 08:53:35;;;;;;;61.87;4.97;;;;;;;;;;5093851;28;20449;-68
2022/07/28 08:56:05;;;;;;;58.50;3.40;;;;;;;;;;5094151;28;20443;-68
2022/07/28 08:58:33;;;;;;;58.70;3.87;;;;;;;;;;5093736;28;20446;-68
2022/07/28 09:01:01;;;;;;;59.50;4.27;;;;;;;;;;5093676;28;21065;-68
2022/07/28 09:03:30;;;;;;;60.07;4.20;;;;;;;;;;5093850;28;20442;-68
2022/07/28 09:05:57;;;;;;;60.17;3.90;;;;;;;;;;5092746;28;20438;-68
2022/07/28 09:08:25;;;;;;;60.23;4.87;;;;;;;;;;5093868;28;20443;-68
2022/07/28 09:10:52;;;;;;;61.10;4.50;;;;;;;;;;5093617;28;20469;-68
2022/07/28 09:13:21;;;;;;;60.10;4.30;;;;;;;;;;5093779;28;20530;-69
2022/07/28 09:15:48;;;;;;;58.80;3.50;;;;;;;;;;5093856;28;20445;-69
2022/07/28 09:18:16;;;;;;;60.07;3.63;;;;;;;;;;5093491;28;20446;-67
2022/07/28 09:20:43;;;;;;;60.73;3.93;;;;;;;;;;5093653;28;20478;-67
2022/07/28 09:23:11;;;;;;;59.07;3.50;;;;;;;;;;5094258;28;20446;-68
2022/07/28 09:25:38;;;;;;;58.63;3.60;;;;;;;;;;5095912;28;20481;-67
2022/07/28 09:28:07;;;;;;;59.10;3.97;;;;;;;;;;5093460;28;20579;-67
2022/07/28 09:30:39;;;;;;;58.50;3.20;;;;;;;;;;5093162;28;20516;-67
2022/07/28 09:33:19;;;;;;;58.80;3.20;;;;;;;;;;5093424;28;20999;-67
2022/07/28 09:35:48;;;;;;;59.10;3.83;;;;;;;;;;5093311;28;20969;-68
2022/07/28 09:38:15;;;;;;;59.00;3.57;;;;;;;;;;5092829;28;20450;-69
2022/07/28 09:40:44;;;;;;;60.27;3.87;;;;;;;;;;5093066;28;20849;-69
2022/07/28 09:43:11;;;;;;;58.90;3.20;;;;;;;;;;5091808;28;20511;-69
2022/07/28 09:45:39;;;;;;;58.90;4.30;;;;;;;;;;5092764;28;20478;-69
2022/07/28 09:48:10;;;;;;;62.20;3.10;;;;;;;;;;5093090;28;20438;-68
2022/07/28 09:50:38;;;;;;;59.27;3.90;;;;;;;;;;5092483;28;20483;-68
2022/07/28 09:53:21;;;;;;;60.70;3.60;;;;;;;;;;5092959;28;20446;-68
2022/07/28 09:55:56;;;;;;;59.37;3.43;;;;;;;;;;5092759;28;20563;-69
2022/07/28 09:58:23;;;;;;;59.07;3.37;;;;;;;;;;5092524;28;20442;-69
2022/07/28 10:01:02;;;;;;;59.30;4.00;;;;;;;;;;5092361;28;20553;-68
2022/07/28 10:03:29;;;;;;;59.10;4.20;;;;;;;;;;5092801;28;20450;-69
2022/07/28 10:05:57;;;;;;;59.90;3.60;;;;;;;;;;5092616;28;20494;-68
2022/07/28 10:08:39;;;;;;;59.80;3.67;;;;;;;;;;5092347;28;20457;-69
2022/07/28 10:11:06;;;;;;;58.80;3.33;;;;;;;;;;5092719;28;20473;-69
2022/07/28 10:13:34;;;;;;;59.27;3.13;;;;;;;;;;5092896;28;20482;-68
2022/07/28 10:16:12;;;;;;;58.50;3.40;;;;;;;;;;5091978;28;20523;-68
2022/07/28 10:18:39;;;;;;;58.60;3.37;;;;;;;;;;5092123;28;20921;-68
2022/07/28 10:21:08;;;;;;;61.70;4.00;;;;;;;;;;5092137;28;20470;-66
2022/07/28 10:23:37;;;;;;;58.70;3.60;;;;;;;;;;5092267;28;20541;-67
2022/07/28 10:26:06;;;;;;;58.90;3.53;;;;;;;;;;5092373;28;20527;-65
2022/07/28 10:28:34;;;;;;;58.63;3.33;;;;;;;;;;5092119;28;20478;-66
2022/07/28 10:31:02;;;;;;;58.63;3.23;;;;;;;;;;5092117;28;20477;-66
2022/07/28 10:33:32;;;;;;;58.27;3.23;;;;;;;;;;5091366;28;21168;-66
2022/07/28 10:35:59;;;;;;;58.37;3.47;;;;;;;;;;5092606;28;20442;-66
2022/07/28 10:38:28;;;;;;;58.30;3.40;;;;;;;;;;5092179;28;20438;-66
2022/07/28 10:40:56;;;;;;;58.30;3.00;;;;;;;;;;5091925;28;20470;-66
2022/07/28 10:43:24;;;;;;;58.20;3.40;;;;;;;;;;5092140;28;20442;-66
2022/07/28 10:45:51;;;;;;;59.20;3.70;;;;;;;;;;5096791;28;20488;-66
2022/07/28 10:48:20;;;;;;;58.57;3.60;;;;;;;;;;5111142;28;20453;-65
2022/07/28 10:50:49;;;;;;;58.30;3.30;;;;;;;;;;5109504;28;20898;-65
2022/07/28 10:53:24;;;;;;;58.60;3.30;;;;;;;;;;5112456;28;20843;-65
2022/07/28 10:55:55;;;;;;;58.40;3.20;;;;;;;;;;5112311;28;20449;-65
2022/07/28 10:58:29;;;;;;;58.40;3.50;;;;;;;;;;5100122;28;20443;-66
2022/07/28 11:00:56;;;;;;;58.87;3.40;;;;;;;;;;5109211;28;20496;-66
2022/07/28 11:03:37;;;;;;;58.97;3.33;;;;;;;;;;5115194;28;20529;-66
2022/07/28 11:06:19;;;;;;;58.50;3.23;;;;;;;;;;5114665;28;20481;-66
2022/07/28 11:08:47;;;;;;;58.20;3.00;;;;;;;;;;5114246;28;20484;-66
2022/07/28 11:11:14;;;;;;;58.60;3.03;;;;;;;;;;5114887;28;20476;-66
2022/07/28 11:13:41;;;;;;;57.97;3.37;;;;;;;;;;5114994;28;20463;-66
2022/07/28 11:16:19;;;;;;;58.20;3.57;;;;;;;;;;5115045;28;20442;-66
2022/07/28 11:19:05;;;;;;;57.50;3.10;;;;;;;;;;5115009;28;20449;-66
2022/07/28 11:21:32;;;;;;;57.90;3.50;;;;;;;;;;5114693;28;20469;-66
2022/07/28 11:24:01;;;;;;;57.27;2.93;;;;;;;;;;5114546;28;20444;-66
2022/07/28 11:26:33;;;;;;;58.77;3.20;;;;;;;;;;5114939;28;20571;-66
2022/07/28 11:29:20;;;;;;;57.57;2.83;;;;;;;;;;5114933;28;20877;-66
2022/07/28 11:32:00;;;;;;;58.17;3.77;;;;;;;;;;5114699;28;20552;-66
2022/07/28 11:34:27;;;;;;;58.70;4.17;;;;;;;;;;5112652;28;20450;-66
2022/07/28 11:37:02;;;;;;;58.20;3.40;;;;;;;;;;5114423;28;20549;-66
2022/07/28 11:39:31;;;;;;;58.67;3.40;;;;;;;;;;5114515;28;20449;-66
2022/07/28 11:41:58;;;;;;;58.37;3.20;;;;;;;;;;5114243;28;20538;-66
2022/07/28 11:44:26;;;;;;;58.27;3.70;;;;;;;;;;5115144;28;20528;-66
2022/07/28 11:46:53;;;;;;;58.00;3.00;;;;;;;;;;5118478;27;20495;-66
2022/07/28 11:49:21;;;;;;;57.57;2.80;;;;;;;;;;5117419;28;20510;-66
2022/07/28 11:52:10;;;;;;;58.10;3.43;;;;;;;;;;5118610;28;20488;-66
2022/07/28 11:54:40;;;;;;;58.07;3.57;;;;;;;;;;5118424;28;20536;-66
2022/07/28 11:57:08;;;;;;;59.27;3.43;;;;;;;;;;5118482;28;20475;-66
2022/07/28 11:59:42;;;;;;;57.80;3.00;;;;;;;;;;5118185;28;20455;-66
2022/07/28 12:02:09;;;;;;;58.57;3.60;;;;;;;;;;5118366;28;20451;-66
2022/07/28 12:04:36;;;;;;;57.87;3.10;;;;;;;;;;5116105;28;20834;-66
2022/07/28 12:07:04;;;;;;;58.07;3.17;;;;;;;;;;5118423;28;20521;-66
2022/07/28 12:09:32;;;;;;;58.33;3.30;;;;;;;;;;5117819;28;20448;-66
2022/07/28 12:12:01;;;;;;;57.50;2.80;;;;;;;;;;5117827;28;20455;-66
2022/07/28 12:14:28;;;;;;;57.70;3.20;;;;;;;;;;5118152;28;20453;-66
2022/07/28 12:16:56;;;;;;;57.63;3.30;;;;;;;;;;5117407;28;21016;-66
2022/07/28 12:19:24;;;;;;;57.80;3.00;;;;;;;;;;5116554;28;20442;-66
2022/07/28 12:21:51;;;;;;;57.40;2.80;;;;;;;;;;5117008;28;20445;-66
2022/07/28 12:24:19;;;;;;;57.50;2.90;;;;;;;;;;5116170;28;20445;-66
2022/07/28 12:26:47;;;;;;;57.17;2.40;;;;;;;;;;5116491;28;21181;-66
2022/07/28 12:29:15;;;;;;;58.50;3.43;;;;;;;;;;5116363;27;20532;-66
2022/07/28 12:31:52;;;;;;;57.60;3.00;;;;;;;;;;5116306;28;20836;-66
2022/07/28 12:34:20;;;;;;;57.17;2.80;;;;;;;;;;5115574;28;20959;-66
2022/07/28 12:36:47;;;;;;;57.33;2.80;;;;;;;;;;5095841;28;20900;-67
2022/07/28 12:39:17;;;;;;;57.27;3.00;;;;;;;;;;5095686;28;20529;-67
2022/07/28 12:41:44;;;;;;;57.57;2.97;;;;;;;;;;5095040;28;20466;-66
2022/07/28 12:44:11;;;;;;;57.40;2.77;;;;;;;;;;5095894;28;20447;-66
2022/07/28 12:46:47;;;;;;;57.07;2.80;;;;;;;;;;5096152;28;20488;-67
2022/07/28 12:49:20;;;;;;;61.77;3.10;;;;;;;;;;5095686;28;20549;-66
2022/07/28 12:51:47;;;;;;;58.40;2.97;;;;;;;;;;5096172;28;20463;-66
2022/07/28 12:54:14;;;;;;;57.60;2.90;;;;;;;;;;5096116;28;20942;-66
2022/07/28 12:56:45;;;;;;;57.53;2.77;;;;;;;;;;5095199;28;20443;-66
2022/07/28 12:59:13;;;;;;;57.60;3.07;;;;;;;;;;5095763;28;20448;-66
2022/07/28 13:01:52;;;;;;;57.57;2.80;;;;;;;;;;5095554;28;20470;-66
2022/07/28 13:04:34;;;;;;;58.10;2.83;;;;;;;;;;5096087;28;20447;-66
2022/07/28 13:07:08;;;;;;;58.10;2.90;;;;;;;;;;5094249;28;20807;-66
2022/07/28 13:09:35;;;;;;;58.70;2.90;;;;;;;;;;5095853;28;20450;-66
2022/07/28 13:12:02;;;;;;;57.87;3.00;;;;;;;;;;5095720;28;20473;-66
2022/07/28 13:14:39;;;;;;;58.60;3.33;;;;;;;;;;5095834;28;20457;-66
2022/07/28 13:17:07;;;;;;;58.00;3.13;;;;;;;;;;5095689;28;20446;-69
2022/07/28 13:19:34;;;;;;;58.23;3.10;;;;;;;;;;5095591;28;20604;-69
2022/07/28 13:22:02;;;;;;;57.97;3.00;;;;;;;;;;5095446;28;20447;-66
2022/07/28 13:24:30;;;;;;;58.10;2.90;;;;;;;;;;5094676;28;20459;-66
2022/07/28 13:26:57;;;;;;;62.43;2.90;;;;;;;;;;5094944;28;20496;-66
2022/07/28 13:29:25;;;;;;;58.20;3.33;;;;;;;;;;5094792;28;20446;-66
2022/07/28 13:31:53;;;;;;;59.17;3.40;;;;;;;;;;5094977;28;20457;-66
2022/07/28 13:34:21;;;;;;;58.90;3.40;;;;;;;;;;5094907;28;20473;-66
2022/07/28 13:36:49;;;;;;;58.70;3.33;;;;;;;;;;5094685;28;20446;-66
2022/07/28 13:39:16;;;;;;;58.20;3.20;;;;;;;;;;5111891;28;20988;-66
2022/07/28 13:41:43;;;;;;;58.00;3.10;;;;;;;;;;5115235;28;20564;-66
2022/07/28 13:44:10;;;;;;;57.97;3.30;;;;;;;;;;5115020;28;20829;-66
2022/07/28 13:46:38;;;;;;;57.97;3.00;;;;;;;;;;5115068;28;20481;-66
2022/07/28 13:49:05;;;;;;;58.53;3.50;;;;;;;;;;5114784;28;20454;-66
2022/07/28 13:51:34;;;;;;;58.17;3.20;;;;;;;;;;5114778;28;20546;-67
2022/07/28 13:54:02;;;;;;;57.87;3.10;;;;;;;;;;5115178;28;20445;-66
2022/07/28 13:56:29;;;;;;;58.57;3.80;;;;;;;;;;5115054;28;20452;-66
2022/07/28 13:58:56;;;;;;;58.97;3.07;;;;;;;;;;5114811;28;20448;-66
2022/07/28 14:01:23;;;;;;;57.90;3.03;;;;;;;;;;5115175;28;20840;-66
2022/07/28 14:03:50;;;;;;;59.37;3.40;;;;;;;;;;5114625;28;21048;-66
2022/07/28 14:06:17;;;;;;;58.13;3.10;;;;;;;;;;5114785;28;20544;-66
2022/07/28 14:08:46;;;;;;;58.27;3.53;;;;;;;;;;5111251;28;20836;-66
2022/07/28 14:11:14;;;;;;;58.50;3.13;;;;;;;;;;5114683;28;20465;-66
2022/07/28 14:13:41;;;;;;;57.90;3.00;;;;;;;;;;5114790;28;20797;-66
2022/07/28 14:16:08;;;;;;;58.07;3.10;;;;;;;;;;5114688;28;20472;-66
2022/07/28 14:18:36;;;;;;;61.83;4.20;;;;;;;;;;5114899;28;20449;-66
2022/07/28 14:21:03;;;;;;;59.60;3.53;;;;;;;;;;5116192;28;20468;-66
2022/07/28 14:23:30;;;;;;;58.67;3.20;;;;;;;;;;5115600;28;20438;-67
2022/07/28 14:25:59;;;;;;;58.10;3.30;;;;;;;;;;5114596;28;20480;-67
2022/07/28 14:28:26;;;;;;;58.50;3.53;;;;;;;;;;5114779;28;20464;-67
2022/07/28 14:30:53;;;;;;;57.80;2.80;;;;;;;;;;5114778;28;20598;-66
2022/07/28 14:33:20;;;;;;;58.07;3.50;;;;;;;;;;5114685;28;20536;-67
2022/07/28 14:35:47;;;;;;;59.80;3.30;;;;;;;;;;5114592;28;20437;-67
2022/07/28 14:38:14;;;;;;;57.90;2.97;;;;;;;;;;5114480;28;20451;-67
2022/07/28 14:40:42;;;;;;;58.00;3.03;;;;;;;;;;5101730;28;20995;-67
2022/07/28 14:43:10;;;;;;;57.60;2.67;;;;;;;;;;5094541;28;20450;-67